Time,TemperatureF,DewpointF,PressureIn,WindDirection,WindDirectionDegrees,WindSpeedMPH,WindSpeedGustMPH,Humidity,HourlyPrecipIn,Conditions,Clouds,dailyrainin,SoftwareType,DateUTC
2013-04-06 00:05:00,42.9,42.0,30.05,ENE,77,0.0,0.0,98,0.00,,,0.00,weatherlink.com 1.10,2013-04-06 04:05:00,
2013-04-06 00:35:00,42.5,42.0,30.04,ENE,77,0.0,1.0,98,0.00,,,0.00,weatherlink.com 1.10,2013-04-06 04:35:00,
2013-04-06 00:50:00,42.4,42.0,30.04,North,6,0.0,1.0,98,0.00,,,0.00,weatherlink.com 1.10,2013-04-06 04:50:00,
2013-04-06 01:05:00,42.4,42.0,30.04,North,356,1.0,1.0,98,0.00,,,0.00,weatherlink.com 1.10,2013-04-06 05:05:00,
2013-04-06 01:20:00,42.6,42.0,30.05,NNW,337,0.0,1.0,98,0.00,,,0.00,weatherlink.com 1.10,2013-04-06 05:20:00,
2013-04-06 01:35:00,42.9,43.0,30.04,NNW,337,0.0,1.0,99,0.00,,,0.00,weatherlink.com 1.10,2013-04-06 05:35:00,
2013-04-06 01:50:00,43.3,43.0,30.05,NNW,337,0.0,0.0,99,0.00,,,0.00,weatherlink.com 1.10,2013-04-06 05:50:00,
2013-04-06 02:05:00,43.1,43.0,30.05,NNW,337,0.0,0.0,98,0.00,,,0.00,weatherlink.com 1.10,2013-04-06 06:05:00,
2013-04-06 02:20:00,42.7,42.0,30.05,NNW,338,0.0,1.0,98,0.00,,,0.00,weatherlink.com 1.10,2013-04-06 06:20:00,
2013-04-06 02:35:00,42.5,42.0,30.05,NNW,337,0.0,1.0,98,0.00,,,0.00,weatherlink.com 1.10,2013-04-06 06:35:00,
2013-04-06 02:50:00,42.4,42.0,30.06,NNW,337,0.0,1.0,99,0.00,,,0.00,weatherlink.com 1.10,2013-04-06 06:50:00,
2013-04-06 03:06:00,42.5,42.0,30.06,NNW,337,0.0,1.0,99,0.00,,,0.00,weatherlink.com 1.10,2013-04-06 07:06:00,
2013-04-06 03:21:00,42.6,42.0,30.07,NNW,337,0.0,1.0,99,0.00,,,0.00,weatherlink.com 1.10,2013-04-06 07:21:00,
2013-04-06 03:36:00,42.5,42.0,30.07,NNW,337,0.0,1.0,99,0.00,,,0.00,weatherlink.com 1.10,2013-04-06 07:36:00,
2013-04-06 03:51:00,42.4,42.0,30.07,NNW,337,0.0,1.0,99,0.00,,,0.00,weatherlink.com 1.10,2013-04-06 07:51:00,
2013-04-06 04:06:00,42.3,42.0,30.07,NNW,338,0.0,1.0,99,0.00,,,0.00,weatherlink.com 1.10,2013-04-06 08:06:00,
2013-04-06 04:21:00,42.5,42.0,30.08,NNW,337,0.0,1.0,99,0.00,,,0.00,weatherlink.com 1.10,2013-04-06 08:21:00,
2013-04-06 04:36:00,42.5,42.0,30.07,WNW,296,0.0,0.0,99,0.00,,,0.00,weatherlink.com 1.10,2013-04-06 08:36:00,
2013-04-06 04:51:00,42.5,42.0,30.08,WNW,296,0.0,1.0,99,0.00,,,0.00,weatherlink.com 1.10,2013-04-06 08:51:00,
2013-04-06 06:06:00,41.4,41.0,30.10,WNW,296,0.0,1.0,99,0.01,,,0.01,weatherlink.com 1.10,2013-04-06 10:06:00,
2013-04-06 06:36:00,41.3,41.0,30.11,WNW,296,0.0,0.0,99,0.00,,,0.01,weatherlink.com 1.10,2013-04-06 10:36:00,
2013-04-06 06:51:00,41.1,41.0,30.12,WNW,296,0.0,1.0,99,0.00,,,0.01,weatherlink.com 1.10,2013-04-06 10:51:00,
2013-04-06 07:21:00,41.1,41.0,30.13,WNW,296,0.0,0.0,99,0.00,,,0.01,weatherlink.com 1.10,2013-04-06 11:21:00,
2013-04-06 07:36:00,42.0,42.0,30.13,WNW,296,1.0,1.0,99,0.00,,,0.01,weatherlink.com 1.10,2013-04-06 11:36:00,
2013-04-06 07:51:00,43.2,43.0,30.14,WNW,298,0.0,1.0,99,0.00,,,0.01,weatherlink.com 1.10,2013-04-06 11:51:00,
2013-04-06 08:06:00,44.7,45.0,30.15,WNW,302,0.0,1.0,99,0.00,,,0.01,weatherlink.com 1.10,2013-04-06 12:06:00,
2013-04-06 08:21:00,46.5,46.0,30.16,WNW,302,0.0,1.0,99,0.00,,,0.01,weatherlink.com 1.10,2013-04-06 12:21:00,
2013-04-06 08:37:00,48.7,49.0,30.16,West,259,0.0,1.0,99,0.00,,,0.01,weatherlink.com 1.10,2013-04-06 12:37:00,
2013-04-06 08:52:00,50.5,50.0,30.16,NNE,16,0.0,3.0,99,0.00,,,0.01,weatherlink.com 1.10,2013-04-06 12:52:00,
2013-04-06 09:07:00,52.0,52.0,30.17,NW,311,0.0,2.0,99,0.00,,,0.01,weatherlink.com 1.10,2013-04-06 13:07:00,
2013-04-06 09:37:00,56.0,54.0,30.18,ESE,121,2.0,3.0,91,0.00,,,0.01,weatherlink.com 1.10,2013-04-06 13:37:00,
2013-04-06 09:52:00,58.8,51.0,30.18,NE,34,1.0,4.0,74,0.00,,,0.01,weatherlink.com 1.10,2013-04-06 13:52:00,
2013-04-06 10:07:00,61.1,50.0,30.18,ENE,78,0.0,4.0,67,0.00,,,0.01,weatherlink.com 1.10,2013-04-06 14:07:00,
2013-04-06 10:22:00,62.4,48.0,30.19,ENE,63,4.0,7.0,59,0.00,,,0.01,weatherlink.com 1.10,2013-04-06 14:22:00,
2013-04-06 10:37:00,62.3,46.0,30.20,East,94,5.0,8.0,56,0.00,,,0.01,weatherlink.com 1.10,2013-04-06 14:37:00,
2013-04-06 10:52:00,62.1,46.0,30.20,East,98,3.0,12.0,55,0.00,,,0.01,weatherlink.com 1.10,2013-04-06 14:52:00,
2013-04-06 11:07:00,62.1,46.0,30.21,East,80,7.0,15.0,55,0.00,,,0.01,weatherlink.com 1.10,2013-04-06 15:07:00,
2013-04-06 11:22:00,62.4,47.0,30.21,NNE,21,3.0,10.0,57,0.00,,,0.01,weatherlink.com 1.10,2013-04-06 15:22:00,
2013-04-06 11:37:00,62.5,47.0,30.22,ENE,69,5.0,14.0,58,0.00,,,0.01,weatherlink.com 1.10,2013-04-06 15:37:00,
2013-04-06 11:52:00,60.9,48.0,30.23,ENE,64,10.0,20.0,63,0.00,,,0.01,weatherlink.com 1.10,2013-04-06 15:52:00,
2013-04-06 12:07:00,59.5,50.0,30.23,NNE,30,8.0,14.0,70,0.00,,,0.01,weatherlink.com 1.10,2013-04-06 16:07:00,
2013-04-06 12:22:00,59.0,50.0,30.23,ENE,75,7.0,15.0,73,0.00,,,0.01,weatherlink.com 1.10,2013-04-06 16:22:00,
2013-04-06 12:37:00,58.4,50.0,30.24,East,87,19.0,19.0,73,0.00,,,0.01,weatherlink.com 1.10,2013-04-06 16:37:00,
2013-04-06 12:52:00,58.8,51.0,30.24,ENE,78,12.0,20.0,74,0.00,,,0.01,weatherlink.com 1.10,2013-04-06 16:52:00,
2013-04-06 13:07:00,59.1,50.0,30.23,ESE,112,4.0,14.0,73,0.00,,,0.01,weatherlink.com 1.10,2013-04-06 17:07:00,
2013-04-06 13:22:00,60.7,52.0,30.23,ESE,104,6.0,10.0,72,0.00,,,0.01,weatherlink.com 1.10,2013-04-06 17:22:00,
2013-04-06 13:37:00,60.0,47.0,30.23,ENE,68,5.0,12.0,63,0.00,,,0.01,weatherlink.com 1.10,2013-04-06 17:37:00,
2013-04-06 13:52:00,60.5,48.0,30.24,NE,56,4.0,14.0,64,0.00,,,0.01,weatherlink.com 1.10,2013-04-06 17:52:00,
2013-04-06 14:07:00,59.6,49.0,30.23,East,91,4.0,17.0,67,0.00,,,0.01,weatherlink.com 1.10,2013-04-06 18:07:00,
2013-04-06 14:37:00,58.4,49.0,30.23,East,85,7.0,16.0,70,0.00,,,0.01,weatherlink.com 1.10,2013-04-06 18:37:00,
2013-04-06 14:55:00,59.8,49.0,30.23,East,90,8.0,12.0,67,0.00,,,0.01,weatherlink.com 1.10,2013-04-06 18:55:00,
2013-04-06 15:07:00,59.0,48.0,30.23,East,89,4.0,18.0,67,0.00,,,0.01,weatherlink.com 1.10,2013-04-06 19:07:00,
2013-04-06 15:22:00,58.5,48.0,30.22,ENE,74,4.0,16.0,69,0.00,,,0.01,weatherlink.com 1.10,2013-04-06 19:22:00,
2013-04-06 15:37:00,59.1,48.0,30.22,East,92,9.0,14.0,68,0.00,,,0.01,weatherlink.com 1.10,2013-04-06 19:37:00,
2013-04-06 15:52:00,58.2,47.0,30.22,East,82,4.0,15.0,67,0.00,,,0.01,weatherlink.com 1.10,2013-04-06 19:52:00,
2013-04-06 16:07:00,57.8,47.0,30.21,ENE,70,7.0,15.0,68,0.00,,,0.01,weatherlink.com 1.10,2013-04-06 20:07:00,
2013-04-06 16:22:00,59.0,48.0,30.21,SSE,160,3.0,12.0,68,0.00,,,0.01,weatherlink.com 1.10,2013-04-06 20:22:00,
2013-04-06 16:37:00,58.9,48.0,30.21,East,79,8.0,8.0,68,0.00,,,0.01,weatherlink.com 1.10,2013-04-06 20:37:00,
2013-04-06 16:52:00,58.3,47.0,30.20,ENE,75,1.0,12.0,66,0.00,,,0.01,weatherlink.com 1.10,2013-04-06 20:52:00,
2013-04-06 17:07:00,58.4,47.0,30.21,ESE,108,9.0,13.0,67,0.00,,,0.01,weatherlink.com 1.10,2013-04-06 21:07:00,
2013-04-06 17:22:00,58.4,48.0,30.21,East,85,5.0,10.0,68,0.00,,,0.01,weatherlink.com 1.10,2013-04-06 21:22:00,
2013-04-06 17:37:00,58.0,47.0,30.21,ESE,103,4.0,12.0,68,0.00,,,0.01,weatherlink.com 1.10,2013-04-06 21:37:00,
2013-04-06 17:52:00,58.1,48.0,30.21,ENE,62,5.0,10.0,68,0.00,,,0.01,weatherlink.com 1.10,2013-04-06 21:52:00,
2013-04-06 18:07:00,58.3,49.0,30.21,ENE,77,6.0,6.0,70,0.00,,,0.01,weatherlink.com 1.10,2013-04-06 22:07:00,
2013-04-06 18:22:00,57.6,49.0,30.22,ESE,108,8.0,8.0,72,0.00,,,0.01,weatherlink.com 1.10,2013-04-06 22:22:00,
2013-04-06 18:37:00,57.1,49.0,30.22,ENE,72,4.0,7.0,73,0.00,,,0.01,weatherlink.com 1.10,2013-04-06 22:37:00,
2013-04-06 19:07:00,56.4,49.0,30.23,NE,51,0.0,7.0,77,0.00,,,0.01,weatherlink.com 1.10,2013-04-06 23:07:00,
2013-04-06 19:22:00,56.1,49.0,30.23,East,79,5.0,7.0,78,0.00,,,0.01,weatherlink.com 1.10,2013-04-06 23:22:00,
2013-04-06 19:37:00,55.4,49.0,30.24,ESE,108,1.0,4.0,79,0.00,,,0.01,weatherlink.com 1.10,2013-04-06 23:37:00,
2013-04-06 19:52:00,54.5,49.0,30.24,East,86,2.0,3.0,81,0.00,,,0.01,weatherlink.com 1.10,2013-04-06 23:52:00,
2013-04-06 20:07:00,54.0,49.0,30.24,East,90,2.0,2.0,82,0.00,,,0.01,weatherlink.com 1.10,2013-04-07 00:07:00,
2013-04-06 20:22:00,54.2,49.0,30.25,ENE,64,1.0,5.0,82,0.00,,,0.01,weatherlink.com 1.10,2013-04-07 00:22:00,
2013-04-06 20:37:00,54.2,49.0,30.25,East,79,1.0,6.0,82,0.00,,,0.01,weatherlink.com 1.10,2013-04-07 00:37:00,
2013-04-06 20:52:00,54.7,49.0,30.25,ENE,62,5.0,8.0,82,0.00,,,0.01,weatherlink.com 1.10,2013-04-07 00:52:00,
2013-04-06 21:07:00,55.0,50.0,30.26,East,82,2.0,9.0,82,0.00,,,0.01,weatherlink.com 1.10,2013-04-07 01:07:00,
2013-04-06 21:23:00,55.0,50.0,30.26,East,84,7.0,8.0,83,0.00,,,0.01,weatherlink.com 1.10,2013-04-07 01:23:00,
2013-04-06 21:38:00,54.9,50.0,30.27,East,87,2.0,10.0,84,0.00,,,0.01,weatherlink.com 1.10,2013-04-07 01:38:00,
2013-04-06 21:53:00,54.5,50.0,30.27,ENE,60,3.0,8.0,85,0.00,,,0.01,weatherlink.com 1.10,2013-04-07 01:53:00,
2013-04-06 22:08:00,54.3,50.0,30.27,East,100,3.0,8.0,86,0.00,,,0.01,weatherlink.com 1.10,2013-04-07 02:08:00,
2013-04-06 22:38:00,54.0,50.0,30.28,East,85,3.0,7.0,87,0.00,,,0.01,weatherlink.com 1.10,2013-04-07 02:38:00,
2013-04-06 22:53:00,53.8,50.0,30.27,ENE,62,5.0,6.0,88,0.00,,,0.01,weatherlink.com 1.10,2013-04-07 02:53:00,
2013-04-06 23:08:00,53.9,51.0,30.27,ENE,66,6.0,8.0,89,0.00,,,0.01,weatherlink.com 1.10,2013-04-07 03:08:00,
2013-04-06 23:23:00,53.8,51.0,30.27,ENE,57,3.0,10.0,90,0.00,,,0.01,weatherlink.com 1.10,2013-04-07 03:23:00,
2013-04-06 23:38:00,53.9,51.0,30.27,East,80,3.0,8.0,91,0.00,,,0.01,weatherlink.com 1.10,2013-04-07 03:38:00,
2013-04-06 23:53:00,53.8,51.0,30.26,East,96,4.0,9.0,91,0.00,,,0.01,weatherlink.com 1.10,2013-04-07 03:53:00,